createdAt,value
2023-03-29T00:01:36.049Z,4.34
2023-03-29T00:04:04.777Z,4.27
2023-03-29T00:06:32.559Z,4.24
2023-03-29T00:09:01.278Z,4.18
2023-03-29T00:11:32.012Z,4.13
2023-03-29T00:13:59.098Z,4.12
2023-03-29T00:16:26.210Z,4.10
2023-03-29T00:18:53.458Z,4.09
2023-03-29T00:21:20.721Z,4.09
2023-03-29T00:23:47.634Z,4.07
2023-03-29T00:26:14.463Z,4.06
2023-03-29T00:28:46.139Z,4.08
2023-03-29T00:31:14.931Z,4.11
2023-03-29T00:33:42.047Z,4.13
2023-03-29T00:36:12.143Z,4.12
2023-03-29T00:38:41.293Z,4.12
2023-03-29T00:41:08.484Z,4.11
2023-03-29T00:44:29.281Z,4.08
2023-03-29T00:46:56.129Z,4.04
2023-03-29T00:49:23.060Z,4.05
2023-03-29T00:51:50.142Z,4.04
2023-03-29T00:54:19.066Z,4.04
2023-03-29T00:56:47.620Z,4.03
2023-03-29T00:59:19.137Z,4.03
2023-03-29T01:02:01.873Z,4.05
2023-03-29T01:04:47.501Z,4.07
2023-03-29T01:07:18.179Z,4.07
2023-03-29T01:09:51.328Z,4.04
2023-03-29T01:12:20.770Z,4.04
2023-03-29T01:14:51.574Z,3.99
2023-03-29T01:17:21.388Z,3.96
2023-03-29T01:19:53.330Z,3.95
2023-03-29T01:22:33.613Z,3.93
2023-03-29T01:25:03.438Z,3.93
2023-03-29T01:28:02.692Z,3.92
2023-03-29T01:30:36.769Z,3.93
2023-03-29T01:33:12.599Z,3.94
2023-03-29T01:35:44.977Z,3.90
2023-03-29T01:38:19.049Z,3.85
2023-03-29T01:40:46.215Z,3.82
2023-03-29T01:43:19.406Z,3.81
2023-03-29T01:46:15.463Z,3.79
2023-03-29T01:48:54.142Z,3.77
2023-03-29T01:51:46.371Z,3.77
2023-03-29T01:54:20.107Z,3.79
2023-03-29T01:56:48.507Z,3.81
2023-03-29T01:59:18.267Z,3.85
2023-03-29T02:01:48.658Z,3.90
2023-03-29T02:04:20.659Z,3.93
2023-03-29T02:06:53.651Z,3.91
2023-03-29T02:09:20.790Z,3.87
2023-03-29T02:11:47.929Z,3.80
2023-03-29T02:14:17.624Z,3.68
2023-03-29T02:16:45.862Z,3.61
2023-03-29T02:19:12.859Z,3.58
2023-03-29T02:21:51.235Z,3.57
2023-03-29T02:24:20.075Z,3.58
2023-03-29T02:26:56.598Z,3.59
2023-03-29T02:29:23.643Z,3.59
2023-03-29T02:31:57.646Z,3.54
2023-03-29T02:34:38.549Z,3.48
2023-03-29T02:37:09.901Z,3.37
2023-03-29T02:39:37.674Z,3.25
2023-03-29T02:42:05.597Z,3.16
2023-03-29T02:44:35.997Z,3.12
2023-03-29T02:47:15.050Z,3.11
2023-03-29T02:49:42.597Z,3.09
2023-03-29T02:52:18.887Z,3.06
2023-03-29T02:54:46.137Z,3.05
2023-03-29T02:57:21.805Z,3.09
2023-03-29T02:59:48.936Z,3.16
2023-03-29T03:02:17.057Z,3.22
2023-03-29T03:04:44.599Z,3.27
2023-03-29T03:07:13.581Z,3.27
2023-03-29T03:09:41.253Z,3.24
2023-03-29T03:12:10.197Z,3.23
2023-03-29T03:14:38.067Z,3.15
2023-03-29T03:17:06.136Z,3.05
2023-03-29T03:19:38.867Z,3.04
2023-03-29T03:22:08.343Z,3.06
2023-03-29T03:24:36.950Z,3.06
2023-03-29T03:27:04.488Z,3.07
2023-03-29T03:29:31.776Z,3.04
2023-03-29T03:32:17.070Z,3.01
2023-03-29T03:35:05.104Z,3.02
2023-03-29T03:37:32.105Z,3.07
2023-03-29T03:39:59.304Z,3.10
2023-03-29T03:42:30.407Z,3.13
2023-03-29T03:44:58.188Z,3.18
2023-03-29T03:47:31.674Z,3.18
2023-03-29T03:50:08.007Z,3.15
2023-03-29T03:52:35.737Z,3.06
2023-03-29T03:55:09.084Z,3.01
2023-03-29T03:57:47.440Z,2.93
2023-03-29T04:00:18.650Z,2.93
2023-03-29T04:02:53.804Z,2.92
2023-03-29T04:05:22.620Z,2.93
2023-03-29T04:07:49.579Z,2.92
2023-03-29T04:10:22.866Z,2.88
2023-03-29T04:13:10.032Z,2.85
2023-03-29T04:15:57.191Z,2.83
2023-03-29T04:18:27.008Z,2.82
2023-03-29T04:20:57.013Z,2.84
2023-03-29T04:23:24.632Z,2.86
2023-03-29T04:25:56.076Z,2.87
2023-03-29T04:28:37.840Z,2.85
2023-03-29T04:31:32.668Z,2.86
2023-03-29T04:34:35.081Z,2.83
2023-03-29T04:37:09.901Z,2.83
2023-03-29T04:39:37.292Z,2.86
2023-03-29T04:42:05.278Z,2.87
2023-03-29T04:44:36.404Z,2.86
2023-03-29T04:47:04.824Z,2.84
2023-03-29T04:49:53.652Z,2.82
2023-03-29T04:52:32.741Z,2.75
2023-03-29T04:55:09.814Z,2.70
2023-03-29T04:58:16.702Z,2.63
2023-03-29T05:00:45.448Z,2.56
2023-03-29T05:03:22.076Z,2.56
2023-03-29T05:05:54.520Z,2.54
2023-03-29T05:08:21.531Z,2.54
2023-03-29T05:11:17.742Z,2.57
2023-03-29T05:13:44.845Z,2.62
2023-03-29T05:16:15.501Z,2.70
2023-03-29T05:18:42.823Z,2.72
2023-03-29T05:21:10.051Z,2.71
2023-03-29T05:23:39.044Z,2.67
2023-03-29T05:26:32.003Z,2.60
2023-03-29T05:29:02.147Z,2.60
2023-03-29T05:31:29.443Z,2.56
2023-03-29T05:33:56.570Z,2.54
2023-03-29T05:36:24.339Z,2.52
2023-03-29T05:38:51.698Z,2.41
2023-03-29T05:41:24.410Z,2.30
2023-03-29T05:44:11.622Z,2.18
2023-03-29T05:46:42.142Z,2.05
2023-03-29T05:49:11.715Z,1.95
2023-03-29T05:52:03.827Z,1.88
2023-03-29T05:54:50.534Z,1.87
2023-03-29T05:57:39.969Z,1.82
2023-03-29T06:00:33.905Z,1.82
2023-03-29T06:03:52.124Z,1.85
2023-03-29T06:06:39.385Z,1.84
2023-03-29T06:17:03.699Z,1.84
2023-03-29T06:19:38.694Z,1.88
2023-03-29T06:26:41.574Z,2.05
2023-03-29T06:29:10.876Z,2.07
2023-03-29T06:31:47.203Z,2.05
2023-03-29T06:36:23.404Z,2.01
2023-03-29T06:39:24.996Z,2.05
2023-03-29T06:47:35.421Z,2.20
2023-03-29T06:50:27.109Z,2.28
2023-03-29T07:15:49.800Z,2.79
2023-03-29T07:28:49.412Z,2.92
2023-03-29T07:38:05.057Z,2.98
2023-03-29T07:44:32.904Z,2.98
2023-03-29T07:47:54.249Z,2.97
2023-03-29T07:50:26.032Z,2.91
2023-03-29T07:53:05.718Z,2.90
2023-03-29T07:56:09.615Z,2.92
2023-03-29T07:59:09.638Z,2.92
2023-03-29T08:01:48.775Z,2.87
2023-03-29T08:05:26.057Z,2.87
2023-03-29T08:08:43.287Z,2.93
2023-03-29T08:23:31.546Z,3.33
2023-03-29T08:26:20.340Z,3.41
2023-03-29T08:29:01.410Z,3.37
2023-03-29T08:31:49.582Z,3.30
2023-03-29T08:34:20.111Z,3.23
2023-03-29T08:37:18.424Z,3.14
2023-03-29T08:39:49.605Z,3.03
2023-03-29T08:43:00.908Z,2.99
2023-03-29T08:45:34.924Z,2.98
2023-03-29T08:48:30.088Z,2.96
2023-03-29T08:51:30.580Z,2.90
2023-03-29T08:54:28.574Z,2.89
2023-03-29T08:57:17.932Z,2.94
2023-03-29T08:59:52.608Z,3.00
2023-03-29T09:02:36.808Z,3.06
2023-03-29T09:05:20.072Z,3.08
2023-03-29T09:07:58.492Z,3.05
2023-03-29T09:10:36.162Z,3.00
2023-03-29T09:13:31.504Z,3.00
2023-03-29T09:16:24.024Z,2.99
2023-03-29T09:19:06.106Z,3.03
2023-03-29T09:21:49.109Z,3.07
2023-03-29T09:25:09.356Z,3.07
2023-03-29T09:27:46.856Z,3.06
2023-03-29T09:30:43.124Z,3.08
2023-03-29T09:33:56.620Z,3.14
2023-03-29T09:37:03.235Z,3.20
2023-03-29T09:39:36.353Z,3.16
2023-03-29T09:42:09.348Z,3.19
2023-03-29T09:44:44.659Z,3.18
2023-03-29T09:47:27.147Z,3.18
2023-03-29T09:49:57.569Z,3.17
2023-03-29T09:52:25.630Z,3.17
2023-03-29T09:55:10.624Z,3.20
2023-03-29T09:58:07.985Z,3.19
2023-03-29T10:00:41.146Z,3.20
2023-03-29T10:03:33.461Z,3.21
2023-03-29T10:06:10.630Z,3.21
2023-03-29T10:08:44.380Z,3.20
2023-03-29T10:11:22.946Z,3.21
2023-03-29T10:14:07.901Z,3.20
2023-03-29T10:16:40.744Z,3.19
2023-03-29T10:19:43.396Z,3.18
2023-03-29T10:22:25.003Z,3.18
2023-03-29T10:24:58.392Z,3.14
2023-03-29T10:27:28.872Z,3.18
2023-03-29T10:30:07.009Z,3.20
2023-03-29T10:40:49.053Z,3.10
2023-03-29T10:44:16.040Z,3.07
2023-03-29T10:47:40.547Z,3.03
2023-03-29T10:50:22.396Z,3.04
2023-03-29T10:53:01.767Z,3.06
2023-03-29T10:56:33.134Z,3.11
2023-03-29T10:59:17.699Z,3.19
2023-03-29T11:05:53.057Z,3.04
2023-03-29T11:08:57.262Z,2.94
2023-03-29T11:14:26.273Z,2.84
2023-03-29T11:17:17.467Z,2.77
2023-03-29T11:20:33.930Z,2.70
2023-03-29T11:23:37.125Z,2.64
2023-03-29T11:26:30.659Z,2.64
2023-03-29T11:29:16.846Z,2.63
2023-03-29T11:32:21.619Z,2.64
2023-03-29T11:36:34.192Z,2.64
2023-03-29T11:39:39.133Z,2.56
2023-03-29T11:42:17.379Z,2.47
2023-03-29T11:44:46.943Z,2.42
2023-03-29T11:47:36.665Z,2.36
2023-03-29T11:50:06.091Z,2.35
2023-03-29T11:52:37.789Z,2.36
2023-03-29T11:55:07.707Z,2.37
2023-03-29T11:57:42.235Z,2.35
2023-03-29T12:00:38.038Z,2.34
2023-03-29T12:03:14.338Z,2.32
2023-03-29T12:05:52.118Z,2.28
2023-03-29T12:08:26.400Z,2.25
2023-03-29T12:11:24.633Z,2.24
2023-03-29T12:13:58.532Z,2.28
2023-03-29T12:16:39.459Z,2.30
2023-03-29T12:19:21.521Z,2.32
2023-03-29T12:21:50.546Z,2.35
2023-03-29T12:24:19.689Z,2.38
2023-03-29T12:26:59.478Z,2.43
2023-03-29T12:29:36.014Z,2.48
2023-03-29T12:33:01.977Z,2.48
2023-03-29T12:35:56.542Z,2.44
2023-03-29T12:39:00.959Z,2.40
2023-03-29T12:41:55.380Z,2.35
2023-03-29T12:44:50.395Z,2.33
2023-03-29T12:48:04.237Z,2.31
2023-03-29T12:51:25.715Z,2.36
2023-03-29T12:53:54.209Z,2.38
2023-03-29T12:56:23.156Z,2.38
2023-03-29T12:59:32.553Z,2.35
2023-03-29T13:02:13.308Z,2.35
2023-03-29T13:04:43.484Z,2.33
2023-03-29T13:07:23.048Z,2.35
2023-03-29T13:09:57.658Z,2.39
2023-03-29T13:12:34.647Z,2.49
2023-03-29T13:15:17.865Z,2.58
2023-03-29T13:18:03.792Z,2.62
2023-03-29T13:28:44.996Z,2.72
2023-03-29T13:36:37.121Z,2.62
2023-03-29T13:39:19.093Z,2.67
2023-03-29T13:42:35.558Z,2.72
2023-03-29T13:45:47.531Z,2.72
2023-03-29T13:48:33.564Z,2.80
2023-03-29T13:51:18.732Z,2.81
2023-03-29T13:54:01.815Z,2.81
2023-03-29T14:11:36.013Z,2.68
2023-03-29T14:14:07.766Z,2.61
2023-03-29T14:16:42.671Z,2.56
2023-03-29T14:19:18.449Z,2.53
2023-03-29T14:21:48.215Z,2.49
2023-03-29T14:24:22.359Z,2.44
2023-03-29T14:26:51.080Z,2.38
2023-03-29T14:32:20.620Z,2.31
2023-03-29T14:34:49.988Z,2.27
2023-03-29T14:37:23.074Z,2.25
2023-03-29T14:39:51.344Z,2.23
2023-03-29T14:42:21.874Z,2.22
2023-03-29T14:44:55.008Z,2.24
2023-03-29T14:47:33.407Z,2.27
2023-03-29T14:50:01.924Z,2.27
2023-03-29T14:52:31.616Z,2.25
2023-03-29T14:55:01.056Z,2.22
2023-03-29T14:57:34.404Z,2.18
2023-03-29T15:00:38.154Z,2.15
2023-03-29T15:03:13.822Z,2.12
2023-03-29T15:05:47.756Z,2.10
2023-03-29T15:08:31.066Z,2.09
2023-03-29T15:10:59.583Z,2.08
2023-03-29T15:13:28.660Z,2.07
2023-03-29T15:16:00.867Z,2.08
2023-03-29T15:18:58.713Z,2.07
2023-03-29T15:21:32.409Z,2.02
2023-03-29T15:24:04.998Z,1.98
2023-03-29T15:26:38.535Z,1.96
2023-03-29T15:29:23.806Z,1.97
2023-03-29T15:31:59.891Z,1.99
2023-03-29T15:34:31.591Z,2.04
2023-03-29T15:37:02.710Z,2.03
2023-03-29T15:39:32.539Z,2.03
2023-03-29T15:42:01.467Z,2.04
2023-03-29T15:44:33.343Z,2.02
2023-03-29T15:47:01.773Z,2.02
2023-03-29T15:49:30.432Z,2.02
2023-03-29T15:51:59.745Z,2.01
2023-03-29T15:54:29.256Z,1.97
2023-03-29T15:57:07.402Z,1.95
2023-03-29T15:59:36.680Z,1.91
2023-03-29T16:02:06.454Z,1.87
2023-03-29T16:04:35.130Z,1.82
2023-03-29T16:07:07.564Z,1.84
2023-03-29T16:09:38.550Z,1.86
2023-03-29T16:12:14.248Z,1.90
2023-03-29T16:15:18.951Z,1.89
2023-03-29T16:17:47.807Z,1.90
2023-03-29T16:20:25.121Z,1.89
2023-03-29T16:22:55.308Z,1.87
2023-03-29T16:25:24.362Z,1.87
2023-03-29T16:30:52.399Z,1.86
2023-03-29T16:34:03.342Z,1.83
2023-03-29T16:40:58.702Z,1.83
2023-03-29T16:57:17.540Z,1.83
2023-03-29T16:59:47.929Z,1.82
2023-03-29T17:02:24.166Z,1.81
2023-03-29T17:05:00.572Z,1.80
2023-03-29T17:07:31.384Z,1.79
2023-03-29T17:09:59.886Z,1.77
2023-03-29T17:12:31.308Z,1.76
2023-03-29T17:14:59.895Z,1.74
2023-03-29T17:17:32.803Z,1.75
2023-03-29T17:20:02.677Z,1.75
2023-03-29T17:22:31.661Z,1.75
2023-03-29T17:25:00.716Z,1.76
2023-03-29T17:27:30.860Z,1.75
2023-03-29T17:30:06.291Z,1.74
2023-03-29T17:36:24.752Z,1.70
2023-03-29T17:39:02.876Z,1.67
2023-03-29T17:41:58.514Z,1.65
2023-03-29T17:48:43.656Z,1.64
2023-03-29T17:51:11.660Z,1.60
2023-03-29T17:53:41.370Z,1.61
2023-03-29T17:56:13.088Z,1.62
2023-03-29T17:58:42.710Z,1.63
2023-03-29T18:01:24.335Z,1.61
2023-03-29T18:03:55.114Z,1.59
2023-03-29T18:06:22.846Z,1.58
2023-03-29T18:08:56.656Z,1.58
2023-03-29T18:11:25.274Z,1.58
2023-03-29T18:13:54.868Z,1.57
2023-03-29T18:16:26.695Z,1.56
2023-03-29T18:18:57.917Z,1.58
2023-03-29T18:21:27.115Z,1.58
2023-03-29T18:23:56.807Z,1.61
2023-03-29T18:26:24.640Z,1.63
2023-03-29T18:28:53.999Z,1.62
2023-03-29T18:31:33.508Z,1.60
2023-03-29T18:34:00.683Z,1.58
2023-03-29T18:36:31.786Z,1.58
2023-03-29T18:39:04.872Z,1.58
2023-03-29T18:41:37.293Z,1.58
2023-03-29T18:44:39.711Z,1.58
2023-03-29T18:47:11.713Z,1.58
2023-03-29T18:50:06.733Z,1.56
2023-03-29T18:59:56.632Z,1.56
2023-03-29T19:02:25.039Z,1.54
2023-03-29T19:04:52.453Z,1.52
2023-03-29T19:07:21.531Z,1.52
2023-03-29T19:09:51.174Z,1.51
2023-03-29T19:12:18.313Z,1.49
2023-03-29T19:14:49.525Z,1.46
2023-03-29T19:17:16.417Z,1.47
2023-03-29T19:19:43.737Z,1.48
2023-03-29T19:22:10.632Z,1.51
2023-03-29T19:24:38.508Z,1.52
2023-03-29T19:27:12.052Z,1.53
2023-03-29T19:29:40.647Z,1.55
2023-03-29T19:32:08.318Z,1.56
2023-03-29T19:34:36.108Z,1.54
2023-03-29T19:37:06.457Z,1.51
2023-03-29T19:39:35.355Z,1.51
2023-03-29T19:42:11.004Z,1.49
2023-03-29T19:44:38.096Z,1.49
2023-03-29T19:47:05.397Z,1.44
2023-03-29T19:49:36.567Z,1.46
2023-03-29T19:52:04.165Z,1.48
2023-03-29T19:54:31.884Z,1.48
2023-03-29T19:56:59.572Z,1.47
2023-03-29T19:59:27.545Z,1.48
2023-03-29T20:02:01.722Z,1.49
2023-03-29T20:04:36.021Z,1.49
2023-03-29T20:07:04.113Z,1.48
2023-03-29T20:09:32.192Z,1.47
2023-03-29T20:12:03.506Z,1.48
2023-03-29T20:14:32.048Z,1.48
2023-03-29T20:16:59.119Z,1.45
2023-03-29T20:19:26.445Z,1.43
2023-03-29T20:21:56.789Z,1.42
2023-03-29T20:24:24.176Z,1.42
2023-03-29T20:26:51.416Z,1.42
2023-03-29T20:29:21.657Z,1.42
2023-03-29T20:31:48.853Z,1.42
2023-03-29T20:34:18.397Z,1.42
2023-03-29T20:36:46.404Z,1.40
2023-03-29T20:39:17.707Z,1.38
2023-03-29T20:41:46.989Z,1.36
2023-03-29T20:44:16.481Z,1.35
2023-03-29T20:47:01.940Z,1.33
2023-03-29T20:49:36.574Z,1.32
2023-03-29T20:52:14.935Z,1.31
2023-03-29T20:54:43.060Z,1.31
2023-03-29T20:57:13.624Z,1.33
2023-03-29T20:59:42.375Z,1.34
2023-03-29T21:02:13.438Z,1.35
2023-03-29T21:04:44.910Z,1.33
2023-03-29T21:07:16.935Z,1.30
2023-03-29T21:09:44.262Z,1.29
2023-03-29T21:12:12.881Z,1.27
2023-03-29T21:14:41.029Z,1.25
2023-03-29T21:17:09.051Z,1.24
2023-03-29T21:19:38.565Z,1.24
2023-03-29T21:22:05.646Z,1.24
2023-03-29T21:24:50.719Z,1.23
2023-03-29T21:27:17.872Z,1.24
2023-03-29T21:29:49.019Z,1.27
2023-03-29T21:32:15.976Z,1.27
2023-03-29T21:34:43.119Z,1.27
2023-03-29T21:37:12.268Z,1.28
2023-03-29T21:39:41.499Z,1.28
2023-03-29T21:42:08.339Z,1.26
2023-03-29T21:44:35.369Z,1.23
2023-03-29T21:47:02.177Z,1.22
2023-03-29T21:49:29.288Z,1.21
2023-03-29T21:51:56.366Z,1.19
2023-03-29T21:54:23.581Z,1.18
2023-03-29T21:56:50.609Z,1.19
2023-03-29T21:59:17.528Z,1.20
2023-03-29T22:01:44.593Z,1.20
2023-03-29T22:04:14.274Z,1.22
2023-03-29T22:06:47.418Z,1.26
2023-03-29T22:09:15.552Z,1.28
2023-03-29T22:11:44.204Z,1.26
2023-03-29T22:14:15.768Z,1.23
2023-03-29T22:16:45.013Z,1.21
2023-03-29T22:19:12.183Z,1.20
2023-03-29T22:21:44.191Z,1.21
2023-03-29T22:24:11.452Z,1.21
2023-03-29T22:26:39.108Z,1.20
2023-03-29T22:29:07.800Z,1.20
2023-03-29T22:31:38.899Z,1.18
2023-03-29T22:34:05.990Z,1.18
2023-03-29T22:36:35.562Z,1.18
2023-03-29T22:39:03.542Z,1.19
2023-03-29T22:41:31.585Z,1.20
2023-03-29T22:44:00.671Z,1.21
2023-03-29T22:46:28.042Z,1.22
2023-03-29T22:48:55.251Z,1.24
2023-03-29T22:51:23.168Z,1.25
2023-03-29T22:53:50.438Z,1.22
2023-03-29T22:56:17.312Z,1.20
2023-03-29T22:58:45.205Z,1.18
2023-03-29T23:01:13.593Z,1.18
2023-03-29T23:03:40.460Z,1.18
2023-03-29T23:06:08.409Z,1.19
2023-03-29T23:08:36.704Z,1.20
2023-03-29T23:11:08.867Z,1.19
2023-03-29T23:13:41.213Z,1.18
2023-03-29T23:16:09.124Z,1.17
2023-03-29T23:18:37.057Z,1.17
2023-03-29T23:21:05.274Z,1.17
2023-03-29T23:23:33.107Z,1.18
2023-03-29T23:26:09.397Z,1.16
2023-03-29T23:30:19.924Z,1.19
2023-03-29T23:32:54.796Z,1.19
2023-03-29T23:35:23.500Z,1.22
2023-03-29T23:37:54.387Z,1.20
2023-03-29T23:40:22.614Z,1.19
2023-03-29T23:42:51.697Z,1.20
2023-03-29T23:45:19.912Z,1.19
2023-03-29T23:47:49.234Z,1.19
2023-03-29T23:50:19.221Z,1.17
2023-03-29T23:52:49.616Z,1.16
2023-03-29T23:55:18.042Z,1.13
2023-03-29T23:57:49.932Z,1.13
